Time;durP1;ratioP1;P1;durP2;ratioP2;P2;SDS_P1;SDS_P2;PMS_P1;PMS_P2;Temp;Humidity;BMP_temperature;BMP_pressure;BME280_temperature;BME280_humidity;BME280_pressure;Samples;Min_cycle;Max_cycle;Signal;HPM_P1;HPM_P2
2021/05/09 00:01:26;;;;;;;6.00;5.00;;;10.90;71.60;;;;;;5007873;28;20621;-45
2021/05/09 00:03:54;;;;;;;5.20;4.70;;;10.80;71.70;;;;;;5005045;28;20453;-46
2021/05/09 00:06:22;;;;;;;6.00;5.17;;;10.80;71.90;;;;;;5005814;28;20464;-45
2021/05/09 00:08:49;;;;;;;8.60;5.97;;;10.80;72.00;;;;;;5001252;28;20548;-46
2021/05/09 00:11:17;;;;;;;7.87;6.63;;;10.80;72.00;;;;;;5008295;28;20993;-46
2021/05/09 00:13:45;;;;;;;11.13;6.30;;;10.70;72.20;;;;;;5006564;28;20461;-46
2021/05/09 00:16:11;;;;;;;11.37;7.07;;;10.70;72.20;;;;;;5007515;28;21012;-45
2021/05/09 00:18:38;;;;;;;9.53;6.60;;;10.60;72.40;;;;;;5004054;28;20453;-46
2021/05/09 00:21:05;;;;;;;10.40;6.33;;;10.60;72.60;;;;;;5003033;28;20492;-45
2021/05/09 00:23:32;;;;;;;5.83;5.10;;;10.60;72.60;;;;;;5008467;28;20466;-46
2021/05/09 00:25:59;;;;;;;7.00;6.30;;;10.60;72.70;;;;;;5010057;28;20563;-46
2021/05/09 00:28:26;;;;;;;5.90;5.30;;;10.50;72.80;;;;;;5002657;28;20452;-46
2021/05/09 00:30:52;;;;;;;5.67;4.80;;;10.50;73.00;;;;;;5005387;28;20460;-46
2021/05/09 00:33:19;;;;;;;6.80;5.17;;;10.50;73.00;;;;;;5010531;28;20440;-46
2021/05/09 00:35:46;;;;;;;5.17;4.67;;;10.50;73.00;;;;;;5001297;28;20708;-45
2021/05/09 00:38:13;;;;;;;7.90;5.33;;;10.40;73.00;;;;;;5007374;28;20460;-45
2021/05/09 00:40:40;;;;;;;6.17;5.43;;;10.40;73.10;;;;;;5005743;28;21016;-46
2021/05/09 00:43:06;;;;;;;6.70;5.07;;;10.30;73.20;;;;;;5004819;28;20485;-46
2021/05/09 00:45:38;;;;;;;6.60;5.20;;;10.30;73.20;;;;;;5004987;28;20485;-45
2021/05/09 00:48:06;;;;;;;5.90;5.07;;;10.30;73.20;;;;;;5004674;28;20970;-45
2021/05/09 00:50:33;;;;;;;7.67;5.60;;;10.20;73.20;;;;;;5007423;28;20480;-46
2021/05/09 00:52:59;;;;;;;8.00;4.60;;;10.20;73.40;;;;;;5021914;28;20544;-45
2021/05/09 00:55:27;;;;;;;8.97;6.43;;;10.20;73.50;;;;;;5005637;28;20972;-46
2021/05/09 00:57:55;;;;;;;9.73;6.70;;;10.10;73.60;;;;;;5000517;28;20454;-45
2021/05/09 01:00:22;;;;;;;10.70;6.93;;;10.10;73.70;;;;;;5000049;28;20465;-45
2021/05/09 01:02:49;;;;;;;10.33;5.77;;;10.10;73.80;;;;;;5003110;28;20883;-46
2021/05/09 01:05:15;;;;;;;7.63;5.63;;;10.00;73.90;;;;;;5003374;28;20957;-45
2021/05/09 01:07:42;;;;;;;6.53;5.90;;;10.00;74.00;;;;;;5006659;28;20476;-45
2021/05/09 01:10:11;;;;;;;6.37;5.77;;;10.00;74.00;;;;;;5006593;28;20988;-46
2021/05/09 01:12:38;;;;;;;11.00;5.60;;;10.00;74.10;;;;;;5004980;28;20478;-46
2021/05/09 01:15:06;;;;;;;7.60;6.30;;;10.00;74.20;;;;;;4998731;28;20456;-46
2021/05/09 01:17:32;;;;;;;6.13;5.53;;;10.00;74.20;;;;;;5000211;28;20468;-45
2021/05/09 01:20:14;;;;;;;6.70;5.77;;;9.90;74.30;;;;;;5000612;28;20460;-45
2021/05/09 01:22:42;;;;;;;8.47;5.73;;;9.90;74.30;;;;;;5005121;28;20495;-46
2021/05/09 01:25:10;;;;;;;6.23;5.33;;;9.90;74.30;;;;;;4999489;28;20460;-46
2021/05/09 01:27:38;;;;;;;6.47;5.60;;;9.80;74.30;;;;;;5000730;28;20464;-46
2021/05/09 01:30:07;;;;;;;5.07;4.57;;;9.80;74.50;;;;;;5000906;28;20461;-46
2021/05/09 01:32:34;;;;;;;7.90;5.40;;;9.80;74.60;;;;;;5004067;28;20475;-45
2021/05/09 01:35:01;;;;;;;7.30;4.90;;;9.80;74.80;;;;;;5000668;28;20541;-45
2021/05/09 01:37:27;;;;;;;5.60;5.00;;;9.80;74.70;;;;;;5001940;28;20992;-45
2021/05/09 01:39:54;;;;;;;6.90;6.07;;;9.70;74.80;;;;;;5005435;28;20858;-45
2021/05/09 01:42:21;;;;;;;6.40;5.60;;;9.70;74.80;;;;;;5003406;28;20491;-45
2021/05/09 01:44:52;;;;;;;8.23;5.60;;;9.70;74.90;;;;;;5003822;28;20499;-46
2021/05/09 01:47:18;;;;;;;6.03;5.40;;;9.70;75.10;;;;;;4999864;28;20518;-45
2021/05/09 01:49:45;;;;;;;7.77;5.40;;;9.70;75.10;;;;;;5002012;28;20456;-45
2021/05/09 01:52:11;;;;;;;5.93;5.27;;;9.70;75.20;;;;;;5006370;28;20465;-45
2021/05/09 01:54:37;;;;;;;8.07;5.13;;;9.70;75.20;;;;;;5003255;28;20984;-45
2021/05/09 01:57:04;;;;;;;6.63;5.40;;;9.60;75.20;;;;;;5001505;28;21391;-46
2021/05/09 01:59:30;;;;;;;7.43;5.43;;;9.60;75.30;;;;;;5003833;28;20463;-45
2021/05/09 02:01:57;;;;;;;5.33;4.83;;;9.60;75.40;;;;;;5001820;28;20811;-45
2021/05/09 02:04:24;;;;;;;9.17;6.00;;;9.70;75.50;;;;;;5005567;28;20460;-45
2021/05/09 02:06:54;;;;;;;7.00;5.60;;;9.60;75.50;;;;;;5004212;28;20972;-46
2021/05/09 02:09:21;;;;;;;5.50;4.97;;;9.70;75.50;;;;;;5002753;28;20495;-45
2021/05/09 02:11:47;;;;;;;6.00;5.40;;;9.70;75.60;;;;;;5001778;28;20471;-45
2021/05/09 02:14:14;;;;;;;7.90;6.37;;;9.70;75.70;;;;;;5002741;28;20533;-45
2021/05/09 02:16:40;;;;;;;5.53;5.00;;;9.70;75.70;;;;;;5022914;28;20498;-45
2021/05/09 02:19:07;;;;;;;6.70;6.10;;;9.70;75.70;;;;;;5006329;28;20460;-46
2021/05/09 02:21:33;;;;;;;5.80;5.20;;;9.70;76.00;;;;;;5006064;28;20520;-46
2021/05/09 02:23:59;;;;;;;7.23;5.73;;;9.70;75.70;;;;;;5010112;28;21032;-45
2021/05/09 02:26:26;;;;;;;7.40;5.20;;;9.70;75.80;;;;;;5009892;28;20486;-45
2021/05/09 02:28:52;;;;;;;6.00;5.50;;;9.70;75.90;;;;;;5009396;28;20548;-45
2021/05/09 02:31:18;;;;;;;6.37;5.77;;;9.70;75.90;;;;;;5010299;28;20471;-46
2021/05/09 02:33:47;;;;;;;8.17;6.10;;;9.70;76.00;;;;;;5008808;28;20514;-45
2021/05/09 02:36:14;;;;;;;6.93;5.80;;;9.70;76.00;;;;;;5004885;28;20464;-45
2021/05/09 02:38:40;;;;;;;6.70;5.90;;;9.70;76.00;;;;;;5008424;28;20472;-46
2021/05/09 02:41:06;;;;;;;7.73;5.43;;;9.70;76.00;;;;;;5004249;28;20491;-46
2021/05/09 02:43:33;;;;;;;7.03;5.67;;;9.70;76.00;;;;;;5008027;28;20452;-46
2021/05/09 02:45:59;;;;;;;6.70;4.90;;;9.80;76.00;;;;;;5007535;28;20899;-45
2021/05/09 02:48:26;;;;;;;6.60;5.73;;;9.80;76.00;;;;;;5006243;28;20483;-46
2021/05/09 02:50:52;;;;;;;7.30;5.70;;;9.70;76.00;;;;;;5012883;28;20495;-47
2021/05/09 02:53:19;;;;;;;6.93;6.23;;;9.70;75.90;;;;;;5008023;28;20563;-47
2021/05/09 02:55:45;;;;;;;8.40;6.13;;;9.70;75.90;;;;;;5008441;28;20488;-47
2021/05/09 02:58:11;;;;;;;5.57;5.03;;;9.70;76.00;;;;;;5008837;28;20507;-47
2021/05/09 03:00:40;;;;;;;5.83;5.30;;;9.70;76.00;;;;;;5006891;28;20453;-47
2021/05/09 03:03:08;;;;;;;6.73;5.50;;;9.70;75.90;;;;;;5013047;28;20455;-47
2021/05/09 03:05:35;;;;;;;6.13;5.53;;;9.70;75.90;;;;;;5009193;28;21010;-47
2021/05/09 03:08:01;;;;;;;6.13;5.43;;;9.70;75.90;;;;;;5007606;28;20453;-47
2021/05/09 03:10:28;;;;;;;6.67;6.07;;;9.70;76.00;;;;;;5013113;28;20455;-47
2021/05/09 03:12:55;;;;;;;7.97;6.07;;;9.70;76.10;;;;;;5008397;28;20526;-47
2021/05/09 03:15:21;;;;;;;8.20;5.77;;;9.60;76.10;;;;;;5007779;28;20922;-47
2021/05/09 03:17:47;;;;;;;7.80;5.00;;;9.60;76.20;;;;;;5003795;28;20468;-47
2021/05/09 03:20:14;;;;;;;6.07;5.50;;;9.60;76.30;;;;;;5009806;28;20475;-47
2021/05/09 03:22:40;;;;;;;7.10;5.90;;;9.70;76.30;;;;;;5008837;28;20498;-47
2021/05/09 03:25:07;;;;;;;6.70;5.47;;;9.70;76.30;;;;;;5006961;28;20456;-47
2021/05/09 03:27:33;;;;;;;9.80;5.77;;;9.60;76.30;;;;;;5006078;28;20456;-47
2021/05/09 03:29:59;;;;;;;7.23;5.90;;;9.60;76.30;;;;;;5006521;28;20475;-47
2021/05/09 03:32:26;;;;;;;7.23;6.50;;;9.60;76.40;;;;;;5009672;28;20488;-47
2021/05/09 03:34:53;;;;;;;6.30;5.80;;;9.60;76.40;;;;;;5009332;28;20468;-47
2021/05/09 03:37:21;;;;;;;6.37;5.50;;;9.70;76.50;;;;;;5007870;28;20495;-47
2021/05/09 03:39:48;;;;;;;7.27;6.17;;;9.70;76.50;;;;;;5010409;28;20952;-47
2021/05/09 03:42:14;;;;;;;7.63;6.30;;;9.70;76.50;;;;;;5006386;28;20515;-47
2021/05/09 03:44:40;;;;;;;7.50;6.00;;;9.70;76.50;;;;;;5008054;28;20467;-47
2021/05/09 03:47:07;;;;;;;7.27;5.97;;;9.70;76.50;;;;;;5009343;28;21022;-47
2021/05/09 03:49:33;;;;;;;6.43;5.77;;;9.70;76.50;;;;;;5025904;28;20542;-47
2021/05/09 03:51:59;;;;;;;8.83;6.20;;;9.70;76.60;;;;;;5005712;28;20476;-47
2021/05/09 03:54:26;;;;;;;8.50;6.70;;;9.70;76.70;;;;;;5005280;28;20461;-47
2021/05/09 03:56:52;;;;;;;8.80;7.33;;;9.70;76.70;;;;;;5022006;28;20464;-47
2021/05/09 03:59:19;;;;;;;15.93;8.90;;;9.70;76.70;;;;;;5008867;28;20951;-47
2021/05/09 04:01:45;;;;;;;10.53;8.73;;;9.70;76.70;;;;;;5004106;28;20527;-47
2021/05/09 04:04:12;;;;;;;10.93;8.00;;;9.70;76.80;;;;;;5007598;28;20556;-47
2021/05/09 04:06:38;;;;;;;10.80;7.80;;;9.70;76.80;;;;;;5004363;28;20468;-47
2021/05/09 04:09:05;;;;;;;10.47;7.50;;;9.80;76.80;;;;;;5007156;28;20453;-47
2021/05/09 04:11:35;;;;;;;10.73;7.97;;;9.80;76.80;;;;;;5007312;28;20472;-47
2021/05/09 04:14:01;;;;;;;8.40;5.87;;;9.80;76.80;;;;;;5007074;28;20559;-47
2021/05/09 04:16:30;;;;;;;7.93;6.37;;;9.80;76.80;;;;;;5001590;28;20488;-47
2021/05/09 04:18:57;;;;;;;8.40;7.43;;;9.70;76.90;;;;;;5006791;28;20551;-47
2021/05/09 04:21:24;;;;;;;8.43;7.30;;;9.70;76.90;;;;;;5003378;28;20491;-47
2021/05/09 04:23:50;;;;;;;6.40;5.80;;;9.80;76.90;;;;;;5005062;28;20462;-47
2021/05/09 04:26:17;;;;;;;11.50;7.03;;;9.80;77.10;;;;;;5007284;28;20932;-47
2021/05/09 04:28:43;;;;;;;7.50;6.70;;;9.80;77.10;;;;;;5002419;28;20510;-47
2021/05/09 04:31:10;;;;;;;6.83;6.13;;;9.80;77.10;;;;;;5002919;28;20551;-47
2021/05/09 04:33:36;;;;;;;7.77;7.00;;;9.80;77.20;;;;;;5019186;28;21091;-47
2021/05/09 04:36:04;;;;;;;9.93;6.47;;;9.80;77.30;;;;;;5006416;28;20811;-47
2021/05/09 04:38:31;;;;;;;8.27;6.27;;;9.80;77.30;;;;;;5004797;28;20552;-47
2021/05/09 04:40:57;;;;;;;7.67;6.90;;;9.80;77.30;;;;;;5004328;28;20549;-47
2021/05/09 04:43:24;;;;;;;7.37;6.37;;;9.90;77.40;;;;;;5016527;28;20472;-47
2021/05/09 04:45:53;;;;;;;8.57;7.13;;;9.90;77.40;;;;;;5005241;28;20515;-47
2021/05/09 04:48:21;;;;;;;6.93;6.27;;;9.90;77.50;;;;;;5002053;28;20488;-47
2021/05/09 04:50:48;;;;;;;7.27;6.60;;;10.00;77.60;;;;;;5008123;28;20468;-47
2021/05/09 04:53:34;;;;;;;7.57;6.43;;;10.00;77.60;;;;;;5003141;28;20589;-47
2021/05/09 04:56:04;;;;;;;6.80;6.20;;;10.10;77.70;;;;;;5018956;28;20830;-47
2021/05/09 04:58:30;;;;;;;10.20;7.20;;;10.20;77.70;;;;;;5005592;28;20805;-47
2021/05/09 05:01:02;;;;;;;13.20;7.83;;;10.20;77.60;;;;;;5004527;28;20464;-47
2021/05/09 05:03:29;;;;;;;9.37;8.33;;;10.30;77.60;;;;;;5005112;28;20566;-47
2021/05/09 05:05:56;;;;;;;8.33;6.97;;;10.30;77.60;;;;;;5003055;28;20567;-47
2021/05/09 05:08:23;;;;;;;9.07;7.20;;;10.40;77.60;;;;;;5004033;28;20455;-47
2021/05/09 05:10:50;;;;;;;12.77;9.20;;;10.50;77.60;;;;;;5007142;28;20543;-47
2021/05/09 05:13:18;;;;;;;9.80;8.83;;;10.50;77.50;;;;;;5000497;28;20465;-47
2021/05/09 05:15:46;;;;;;;8.97;8.10;;;10.60;77.40;;;;;;5002685;28;20914;-47
2021/05/09 05:18:13;;;;;;;9.37;7.70;;;10.70;77.20;;;;;;5002543;28;20896;-47
2021/05/09 05:20:41;;;;;;;9.27;7.93;;;10.80;77.10;;;;;;5002971;28;20874;-47
2021/05/09 05:23:07;;;;;;;8.60;7.73;;;10.80;76.60;;;;;;5003031;28;20485;-47
2021/05/09 05:25:34;;;;;;;10.23;9.13;;;10.90;76.20;;;;;;5016044;28;20985;-47
2021/05/09 05:28:02;;;;;;;9.87;7.70;;;10.90;75.80;;;;;;5000355;28;20527;-48
2021/05/09 05:30:29;;;;;;;7.57;6.17;;;11.00;75.50;;;;;;5010285;28;20839;-47
2021/05/09 05:33:06;;;;;;;8.97;6.53;;;11.10;75.10;;;;;;5008309;28;20470;-47
2021/05/09 05:35:34;;;;;;;6.90;6.20;;;11.10;74.80;;;;;;5011031;28;21004;-47
2021/05/09 05:38:00;;;;;;;8.67;7.73;;;11.20;74.50;;;;;;5002182;28;20510;-47
2021/05/09 05:40:28;;;;;;;7.30;6.03;;;11.30;74.30;;;;;;5006125;28;20460;-47
2021/05/09 05:42:55;;;;;;;7.77;6.33;;;11.40;74.00;;;;;;5006667;28;20497;-47
2021/05/09 05:45:23;;;;;;;9.53;7.07;;;11.50;73.70;;;;;;5007398;28;20456;-47
2021/05/09 05:47:50;;;;;;;7.63;6.87;;;11.60;73.40;;;;;;5009161;28;20463;-47
2021/05/09 05:50:17;;;;;;;6.47;5.87;;;11.70;73.30;;;;;;5008706;28;20487;-47
2021/05/09 05:52:44;;;;;;;8.33;6.33;;;11.80;73.30;;;;;;5011995;28;21021;-47
2021/05/09 05:55:11;;;;;;;7.90;7.20;;;11.90;73.10;;;;;;5014375;28;20460;-47
2021/05/09 05:57:37;;;;;;;6.60;6.00;;;12.10;73.00;;;;;;5013343;28;21028;-47
2021/05/09 06:00:05;;;;;;;8.10;6.67;;;12.10;73.00;;;;;;5012718;28;20457;-47
2021/05/09 06:02:31;;;;;;;8.63;7.80;;;12.20;72.60;;;;;;5012640;28;20523;-47
2021/05/09 06:04:58;;;;;;;7.97;6.80;;;12.30;72.20;;;;;;5011910;28;20474;-47
2021/05/09 06:07:27;;;;;;;6.73;6.03;;;12.40;71.70;;;;;;5008454;28;20452;-47
2021/05/09 06:09:54;;;;;;;6.50;6.00;;;12.60;71.00;;;;;;5007245;28;20901;-47
2021/05/09 06:12:20;;;;;;;8.73;5.90;;;12.70;69.90;;;;;;5005501;28;20501;-47
2021/05/09 06:14:47;;;;;;;8.47;6.23;;;12.70;69.60;;;;;;5005796;28;20982;-47
2021/05/09 06:17:16;;;;;;;7.17;6.43;;;12.90;69.40;;;;;;5004108;28;20527;-47
2021/05/09 06:19:43;;;;;;;8.70;5.83;;;13.00;68.90;;;;;;5023613;28;20520;-47
2021/05/09 06:22:09;;;;;;;6.73;6.13;;;13.10;69.10;;;;;;5008373;28;20524;-47
2021/05/09 06:24:36;;;;;;;7.20;5.80;;;13.20;68.70;;;;;;5005579;28;20456;-47
2021/05/09 06:27:03;;;;;;;6.90;5.90;;;13.30;68.30;;;;;;5009510;28;20473;-47
2021/05/09 06:29:30;;;;;;;7.27;6.67;;;13.40;68.00;;;;;;5004628;28;20456;-47
2021/05/09 06:31:57;;;;;;;8.13;6.50;;;13.50;67.30;;;;;;5004169;28;20464;-47
2021/05/09 06:34:24;;;;;;;8.10;6.00;;;13.60;65.10;;;;;;5001685;28;20529;-47
2021/05/09 06:36:50;;;;;;;7.07;6.17;;;13.80;65.10;;;;;;5005732;28;20519;-47
2021/05/09 06:39:25;;;;;;;6.87;5.97;;;13.90;65.00;;;;;;5005202;28;20949;-47
2021/05/09 06:41:51;;;;;;;7.40;5.93;;;14.00;64.70;;;;;;5005372;28;20475;-47
2021/05/09 06:44:18;;;;;;;6.70;6.10;;;14.20;64.90;;;;;;5011893;28;20499;-47
2021/05/09 06:46:45;;;;;;;8.90;6.13;;;14.30;65.30;;;;;;5012939;28;20547;-47
2021/05/09 06:49:14;;;;;;;7.73;6.60;;;14.40;64.70;;;;;;5009765;28;20452;-47
2021/05/09 06:51:40;;;;;;;8.47;6.97;;;14.60;64.40;;;;;;5010950;28;20834;-47
2021/05/09 06:54:07;;;;;;;7.20;6.60;;;14.70;64.30;;;;;;5007565;28;20579;-47
2021/05/09 06:56:36;;;;;;;7.90;6.03;;;14.90;63.30;;;;;;5009758;28;20630;-47
2021/05/09 06:59:03;;;;;;;6.00;5.40;;;15.10;64.10;;;;;;5006656;28;20459;-47
2021/05/09 07:01:32;;;;;;;8.47;6.80;;;15.30;63.20;;;;;;5004599;28;20535;-47
2021/05/09 07:03:59;;;;;;;7.73;6.50;;;15.40;62.20;;;;;;5008845;28;20449;-47
2021/05/09 07:06:26;;;;;;;7.90;7.10;;;15.60;62.30;;;;;;5004091;28;20546;-47
2021/05/09 07:08:53;;;;;;;8.43;6.23;;;15.80;62.00;;;;;;5006348;28;20465;-47
2021/05/09 07:11:19;;;;;;;7.53;5.97;;;15.90;61.60;;;;;;5005920;28;20554;-48
2021/05/09 07:13:46;;;;;;;6.80;6.10;;;16.10;61.30;;;;;;5007785;28;20644;-48
2021/05/09 07:16:14;;;;;;;7.97;6.73;;;16.30;60.50;;;;;;5005506;28;20476;-48
2021/05/09 07:18:41;;;;;;;6.90;5.70;;;16.50;60.40;;;;;;5008980;28;20468;-47
2021/05/09 07:21:16;;;;;;;6.93;5.90;;;16.70;60.20;;;;;;5010051;28;20464;-48
2021/05/09 07:23:47;;;;;;;7.67;5.50;;;16.90;59.70;;;;;;5005989;28;20467;-48
2021/05/09 07:26:15;;;;;;;6.70;5.80;;;17.00;59.50;;;;;;5000686;28;21215;-47
2021/05/09 07:28:42;;;;;;;6.70;6.03;;;17.20;59.10;;;;;;5011935;28;21036;-48
2021/05/09 07:31:09;;;;;;;7.17;6.47;;;17.40;58.50;;;;;;5008705;28;20453;-48
2021/05/09 07:33:35;;;;;;;5.97;4.70;;;17.60;58.20;;;;;;5008713;28;20456;-48
2021/05/09 07:36:02;;;;;;;7.10;6.40;;;17.80;58.20;;;;;;5006043;28;20864;-48
2021/05/09 07:38:30;;;;;;;6.20;5.60;;;17.90;58.10;;;;;;5010020;28;20949;-47
2021/05/09 07:40:57;;;;;;;6.83;5.63;;;18.10;57.60;;;;;;5010102;28;20458;-47
2021/05/09 07:43:23;;;;;;;6.33;5.73;;;18.30;57.30;;;;;;5009792;28;20575;-47
2021/05/09 07:45:50;;;;;;;7.53;5.83;;;18.50;56.90;;;;;;5007669;28;20492;-47
2021/05/09 07:48:16;;;;;;;7.50;6.70;;;18.60;56.60;;;;;;5007715;28;20516;-47
2021/05/09 07:50:43;;;;;;;7.60;6.70;;;18.80;56.30;;;;;;5006877;28;20867;-50
2021/05/09 07:53:13;;;;;;;6.77;6.10;;;19.00;55.50;;;;;;5000210;28;20993;-49
2021/05/09 07:55:41;;;;;;;10.70;5.80;;;19.20;55.80;;;;;;5003124;28;20460;-51
2021/05/09 07:58:19;;;;;;;8.00;5.90;;;19.30;56.20;;;;;;5008535;28;20469;-51
2021/05/09 08:00:47;;;;;;;7.80;6.93;;;19.40;55.40;;;;;;5008221;28;20464;-51
2021/05/09 08:03:13;;;;;;;7.10;5.83;;;19.60;54.80;;;;;;5005242;28;20495;-50
2021/05/09 08:05:41;;;;;;;6.60;6.00;;;19.80;54.10;;;;;;5004062;28;20469;-50
2021/05/09 08:08:08;;;;;;;6.20;5.60;;;19.90;54.20;;;;;;5021034;28;20452;-50
2021/05/09 08:10:38;;;;;;;7.57;6.83;;;20.10;53.50;;;;;;5006010;28;20954;-50
2021/05/09 08:13:06;;;;;;;7.33;6.63;;;20.20;53.20;;;;;;5009278;28;20455;-50
2021/05/09 08:15:34;;;;;;;7.10;6.43;;;20.30;53.40;;;;;;5006478;28;20488;-50
2021/05/09 08:18:00;;;;;;;6.90;6.27;;;20.40;52.60;;;;;;5004748;28;20504;-50
2021/05/09 08:20:28;;;;;;;7.13;6.13;;;20.50;52.80;;;;;;5006525;28;20547;-50
2021/05/09 08:22:55;;;;;;;6.63;5.93;;;20.70;52.80;;;;;;5010181;28;20488;-50
2021/05/09 08:25:22;;;;;;;6.30;5.70;;;20.80;52.70;;;;;;5011503;28;20456;-50
2021/05/09 08:27:50;;;;;;;5.83;5.10;;;;;;;;;;5011093;28;20467;-50
2021/05/09 08:30:20;;;;;;;7.73;5.70;;;21.20;51.70;;;;;;5007516;28;20870;-50
2021/05/09 08:32:46;;;;;;;6.60;5.90;;;21.30;51.30;;;;;;5010526;28;20464;-50
2021/05/09 08:35:14;;;;;;;6.43;5.50;;;21.50;51.00;;;;;;5010765;28;20515;-50
2021/05/09 08:37:42;;;;;;;6.40;5.13;;;21.70;50.30;;;;;;5007600;28;20543;-50
2021/05/09 08:40:15;;;;;;;5.63;5.13;;;21.80;50.00;;;;;;5011941;28;20487;-50
2021/05/09 08:42:45;;;;;;;5.73;4.47;;;21.90;49.80;;;;;;5010236;28;20487;-50
2021/05/09 08:45:12;;;;;;;6.63;4.90;;;22.10;50.00;;;;;;5008504;28;20473;-50
2021/05/09 08:47:40;;;;;;;4.40;4.00;;;22.30;49.60;;;;;;5009050;28;20514;-50
2021/05/09 08:50:08;;;;;;;5.40;4.90;;;22.50;49.10;;;;;;5009210;28;20457;-50
2021/05/09 08:52:35;;;;;;;6.13;5.53;;;22.70;48.90;;;;;;5010283;28;20448;-50
2021/05/09 08:55:04;;;;;;;4.97;4.47;;;22.80;48.30;;;;;;5010655;28;20547;-50
2021/05/09 08:57:32;;;;;;;6.50;4.70;;;23.00;48.40;;;;;;5008800;28;20876;-50
2021/05/09 08:59:58;;;;;;;4.43;4.03;;;23.30;48.20;;;;;;5011104;28;20448;-50
2021/05/09 09:02:28;;;;;;;5.80;4.70;;;23.60;47.70;;;;;;5006203;28;20495;-50
2021/05/09 09:04:57;;;;;;;4.20;3.80;;;23.90;46.80;;;;;;5008134;28;20459;-50
2021/05/09 09:07:41;;;;;;;5.23;4.57;;;24.10;46.60;;;;;;5007743;28;20862;-51
2021/05/09 09:10:08;;;;;;;4.40;4.00;;;24.40;45.80;;;;;;5011115;28;20735;-50
2021/05/09 09:12:38;;;;;;;6.10;4.73;;;24.70;45.70;;;;;;5006521;28;20472;-51
2021/05/09 09:15:06;;;;;;;4.73;4.33;;;25.00;45.30;;;;;;5007051;28;20486;-50
2021/05/09 09:17:33;;;;;;;5.33;4.20;;;25.20;44.70;;;;;;5000720;28;20463;-48
2021/05/09 09:20:19;;;;;;;4.00;3.70;;;25.50;44.60;;;;;;5005965;28;20481;-48
2021/05/09 09:22:52;;;;;;;4.70;4.13;;;25.70;44.00;;;;;;5000916;28;20525;-49
2021/05/09 09:25:31;;;;;;;8.83;4.20;;;26.00;44.00;;;;;;5007136;28;20818;-48
2021/05/09 09:28:00;;;;;;;4.73;4.07;;;26.30;43.80;;;;;;5004118;28;20552;-49
2021/05/09 09:30:29;;;;;;;4.27;3.97;;;26.60;43.50;;;;;;5011235;28;20499;-49
2021/05/09 09:33:14;;;;;;;4.30;3.83;;;26.90;43.00;;;;;;5010489;28;20479;-49
2021/05/09 09:35:45;;;;;;;4.03;3.60;;;27.10;42.60;;;;;;5010946;28;20470;-50
2021/05/09 09:38:29;;;;;;;5.00;4.40;;;27.40;42.10;;;;;;5008430;28;20466;-50
2021/05/09 09:41:09;;;;;;;5.30;3.23;;;27.70;40.80;;;;;;5007810;28;20466;-50
2021/05/09 09:43:37;;;;;;;3.50;3.17;;;28.10;40.90;;;;;;5001705;28;20547;-50
2021/05/09 09:46:04;;;;;;;5.27;3.50;;;28.50;40.30;;;;;;5008515;28;20809;-50
2021/05/09 09:48:41;;;;;;;7.43;3.70;;;28.90;39.90;;;;;;5004685;28;20802;-52
2021/05/09 09:51:08;;;;;;;3.90;3.07;;;;;;;;;;5003575;28;20299;-51
2021/05/09 09:53:39;;;;;;;4.03;3.73;;;29.60;39.10;;;;;;5022906;28;20282;-51
2021/05/09 09:56:17;;;;;;;3.43;3.13;;;29.60;39.00;;;;;;4998074;28;20214;-51
2021/05/09 09:58:57;;;;;;;3.50;3.20;;;29.70;38.90;;;;;;4997608;28;20211;-51
2021/05/09 10:01:28;;;;;;;5.57;3.20;;;29.90;38.20;;;;;;5006575;28;20208;-50
2021/05/09 10:04:08;;;;;;;3.50;3.20;;;30.10;38.00;;;;;;5006998;28;20244;-51
2021/05/09 10:06:39;;;;;;;3.83;3.22;;;30.30;37.80;;;;;;5005920;28;20293;-51
2021/05/09 10:09:08;;;;;;;3.67;3.37;;;30.10;38.20;;;;;;5006955;28;20224;-51
2021/05/09 10:11:35;;;;;;;5.90;3.50;;;29.90;38.30;;;;;;5006714;28;20665;-51
2021/05/09 10:14:03;;;;;;;5.23;3.47;;;29.90;38.50;;;;;;5002843;28;20205;-51
2021/05/09 10:16:34;;;;;;;3.70;3.07;;;29.80;38.60;;;;;;4995040;28;20248;-51
2021/05/09 10:19:10;;;;;;;4.45;3.83;;;29.70;38.60;;;;;;5005728;28;20754;-51
2021/05/09 10:21:40;;;;;;;3.92;3.53;;;29.60;39.00;;;;;;5007947;28;20765;-50
2021/05/09 10:24:35;;;;;;;3.45;3.20;;;29.70;39.10;;;;;;5005034;28;20197;-51
2021/05/09 10:27:10;;;;;;;3.50;3.20;;;29.80;39.00;;;;;;5006708;28;20217;-51
2021/05/09 10:29:37;;;;;;;3.53;3.33;;;29.90;38.90;;;;;;5009607;28;20265;-51
2021/05/09 10:32:20;;;;;;;4.10;3.27;;;30.10;39.00;;;;;;4997272;28;20213;-51
2021/05/09 10:34:53;;;;;;;5.00;3.77;;;30.00;39.30;;;;;;5003712;28;20220;-51
2021/05/09 10:37:52;;;;;;;3.70;3.40;;;29.90;39.10;;;;;;5003989;28;20208;-51
2021/05/09 10:40:23;;;;;;;5.97;3.17;;;29.80;39.20;;;;;;5014501;28;20209;-50
2021/05/09 10:43:07;;;;;;;3.90;2.97;;;29.60;39.50;;;;;;5007760;28;20232;-50
2021/05/09 10:45:37;;;;;;;3.40;3.10;;;29.50;39.60;;;;;;5008320;28;20201;-51
2021/05/09 10:48:16;;;;;;;3.70;3.40;;;29.40;40.10;;;;;;5004283;28;20284;-51
2021/05/09 10:50:43;;;;;;;2.50;2.30;;;29.40;40.10;;;;;;5004649;28;20240;-51
2021/05/09 10:53:32;;;;;;;2.50;2.30;;;29.50;39.90;;;;;;5007975;28;20267;-51
2021/05/09 10:56:28;;;;;;;2.60;2.40;;;29.40;39.90;;;;;;5007806;28;20219;-51
2021/05/09 10:58:55;;;;;;;4.00;2.57;;;29.30;40.10;;;;;;5007405;28;20209;-51
2021/05/09 11:01:24;;;;;;;2.47;2.27;;;29.10;39.60;;;;;;5010494;28;20666;-50
2021/05/09 11:03:52;;;;;;;2.87;2.63;;;28.90;39.60;;;;;;5006182;28;20236;-50
2021/05/09 11:06:25;;;;;;;2.50;2.00;;;28.80;39.50;;;;;;5005210;28;20216;-50
2021/05/09 11:08:59;;;;;;;2.30;2.10;;;28.80;40.20;;;;;;5004720;28;20208;-50
2021/05/09 11:11:25;;;;;;;2.00;1.80;;;28.70;40.50;;;;;;5005679;28;20287;-50
2021/05/09 11:14:01;;;;;;;2.53;1.77;;;28.60;40.20;;;;;;5006566;28;20869;-51
2021/05/09 11:16:33;;;;;;;2.57;2.30;;;28.60;40.80;;;;;;5001622;28;20433;-50
2021/05/09 11:19:05;;;;;;;4.47;2.10;;;28.60;40.80;;;;;;5006095;28;20202;-51
2021/05/09 11:21:33;;;;;;;3.23;1.90;;;28.50;40.10;;;;;;5000045;28;20315;-51
2021/05/09 11:24:02;;;;;;;1.70;1.60;;;28.40;39.60;;;;;;5005035;28;20896;-51
2021/05/09 11:26:44;;;;;;;4.07;2.00;;;28.30;39.60;;;;;;5007842;28;20204;-49
2021/05/09 11:29:12;;;;;;;2.20;1.50;;;28.30;39.60;;;;;;5012776;28;20650;-51
2021/05/09 11:31:47;;;;;;;2.83;2.00;;;28.30;39.90;;;;;;5008812;28;20313;-51
2021/05/09 11:34:15;;;;;;;4.83;1.53;;;28.20;39.70;;;;;;5006999;28;20690;-50
2021/05/09 11:36:46;;;;;;;2.80;2.33;;;28.20;40.00;;;;;;5005614;28;20485;-50
2021/05/09 11:39:21;;;;;;;2.73;2.00;;;28.20;40.50;;;;;;5003035;28;20205;-49
2021/05/09 11:41:57;;;;;;;3.20;2.23;;;28.20;40.10;;;;;;5003754;28;20859;-49
2021/05/09 11:44:30;;;;;;;2.50;2.30;;;28.20;39.70;;;;;;5007445;28;20483;-49
2021/05/09 11:46:57;;;;;;;2.60;2.40;;;28.10;40.10;;;;;;4999492;28;20958;-49
2021/05/09 11:49:26;;;;;;;7.23;6.50;;;28.10;40.40;;;;;;5008136;28;21018;-49
2021/05/09 11:51:53;;;;;;;4.00;3.60;;;28.10;40.20;;;;;;5006669;28;20543;-49
2021/05/09 11:54:21;;;;;;;3.70;2.57;;;28.10;39.60;;;;;;5018769;28;20949;-50
2021/05/09 11:56:55;;;;;;;3.30;2.20;;;28.20;40.10;;;;;;5000162;28;20736;-50
2021/05/09 11:59:57;;;;;;;2.27;2.00;;;28.30;40.30;;;;;;5008300;28;20550;-50
2021/05/09 12:02:29;;;;;;;5.03;2.00;;;28.40;39.30;;;;;;5006602;28;20294;-50
2021/05/09 12:05:09;;;;;;;2.27;2.07;;;28.40;39.20;;;;;;5004729;28;20627;-49
2021/05/09 12:08:00;;;;;;;2.40;2.10;;;28.30;39.50;;;;;;5009166;28;20205;-50
2021/05/09 12:10:29;;;;;;;3.20;1.60;;;28.30;40.00;;;;;;5021175;28;20201;-50
2021/05/09 12:12:57;;;;;;;4.00;2.80;;;28.40;39.00;;;;;;5004717;28;20953;-50
2021/05/09 12:15:24;;;;;;;4.50;2.30;;;28.40;39.00;;;;;;5007452;28;20628;-51
2021/05/09 12:17:56;;;;;;;2.53;2.00;;;28.40;39.50;;;;;;5007422;28;20545;-49
2021/05/09 12:20:30;;;;;;;2.90;2.60;;;28.40;38.90;;;;;;5007725;28;20459;-51
2021/05/09 12:23:00;;;;;;;4.53;2.10;;;28.40;39.20;;;;;;5009038;28;20319;-51
2021/05/09 12:25:32;;;;;;;2.80;2.10;;;28.50;39.50;;;;;;5023911;28;20531;-50
2021/05/09 12:28:27;;;;;;;1.93;1.80;;;28.50;39.30;;;;;;5007895;28;20494;-51
2021/05/09 12:30:54;;;;;;;2.23;2.03;;;28.60;39.30;;;;;;5007283;28;20205;-51
2021/05/09 12:33:27;;;;;;;2.00;1.80;;;28.70;37.80;;;;;;5007392;28;20529;-50
2021/05/09 12:35:58;;;;;;;5.10;2.10;;;28.60;38.40;;;;;;5006144;28;20614;-51
2021/05/09 12:38:25;;;;;;;3.27;2.23;;;28.60;38.40;;;;;;5019456;28;20927;-50
2021/05/09 12:41:03;;;;;;;3.10;2.00;;;28.50;38.60;;;;;;5007598;28;20220;-50
2021/05/09 12:43:48;;;;;;;1.90;1.30;;;28.50;38.40;;;;;;5004871;28;20499;-49
2021/05/09 12:46:47;;;;;;;2.10;1.87;;;28.50;38.40;;;;;;5007651;28;20255;-51
2021/05/09 12:49:15;;;;;;;1.83;1.73;;;28.50;38.40;;;;;;5006890;28;20454;-50
2021/05/09 12:51:58;;;;;;;1.53;1.43;;;28.40;38.80;;;;;;5006948;28;20296;-51
2021/05/09 12:54:35;;;;;;;1.77;1.67;;;28.40;38.30;;;;;;5006183;28;20487;-50
2021/05/09 12:57:19;;;;;;;2.13;1.80;;;28.50;38.70;;;;;;5006525;28;20200;-51
2021/05/09 12:59:46;;;;;;;2.27;1.80;;;28.40;38.40;;;;;;5006988;28;20910;-50
2021/05/09 13:02:18;;;;;;;2.20;2.00;;;28.50;39.10;;;;;;5024335;28;21008;-49